createdAt,value
2018-11-22T12:48:17.403Z,83.40
2018-11-22T12:50:58.827Z,83.70
2018-11-22T12:53:40.198Z,80.00
2018-11-22T12:56:21.968Z,79.70
2018-11-22T12:59:03.656Z,81.00
2018-11-22T13:01:45.404Z,82.10
2018-11-22T13:04:28.471Z,83.50
2018-11-22T13:07:09.342Z,84.40
2018-11-22T13:09:51.035Z,83.00
2018-11-22T13:12:32.421Z,83.30
2018-11-22T13:15:17.519Z,83.40
2018-11-22T13:17:58.871Z,83.50
2018-11-22T13:20:39.642Z,83.50
2018-11-22T13:23:21.541Z,83.90
2018-11-22T13:26:03.238Z,84.50
2018-11-22T13:28:44.937Z,84.00
2018-11-22T13:31:26.537Z,85.20
2018-11-22T13:34:08.027Z,86.10
2018-11-22T13:36:49.687Z,87.00
2018-11-22T13:39:31.820Z,86.60
2018-11-22T13:42:13.376Z,86.10
2018-11-22T13:44:55.088Z,86.10
2018-11-22T13:47:36.781Z,87.10
2018-11-22T13:50:19.681Z,86.60
2018-11-22T13:53:02.612Z,87.90
2018-11-22T13:55:44.323Z,88.70
2018-11-22T13:58:26.090Z,88.00
2018-11-22T14:01:07.285Z,89.30
2018-11-22T14:03:48.953Z,89.00
2018-11-22T14:06:31.076Z,88.90
2018-11-22T14:09:12.360Z,89.30
2018-11-22T14:11:54.646Z,90.00
2018-11-22T14:14:36.171Z,90.10
2018-11-22T14:17:17.849Z,90.30
2018-11-22T14:19:59.632Z,90.50
2018-11-22T14:22:41.918Z,90.80
2018-11-22T14:25:23.096Z,90.10
2018-11-22T14:28:04.817Z,90.20
2018-11-22T14:30:46.581Z,90.00
2018-11-22T14:33:28.172Z,90.40
2018-11-22T14:36:09.992Z,90.90
2018-11-22T14:38:51.680Z,91.40
2018-11-22T14:41:33.371Z,91.20
2018-11-22T14:44:15.074Z,90.90
2018-11-22T14:46:56.832Z,91.00
2018-11-22T14:49:38.338Z,91.10
2018-11-22T14:52:20.213Z,91.70
2018-11-22T14:55:01.729Z,92.50
2018-11-22T14:57:43.493Z,92.60
2018-11-22T15:00:26.007Z,92.90
2018-11-22T15:03:08.398Z,93.00
2018-11-22T15:05:49.495Z,93.40
2018-11-22T15:08:31.545Z,94.00
2018-11-22T15:11:12.767Z,94.10
2018-11-22T15:13:54.662Z,93.90
2018-11-22T15:16:36.183Z,94.10
2018-11-22T15:19:17.868Z,94.10
2018-11-22T15:21:59.560Z,94.10
2018-11-22T15:24:41.846Z,94.20
2018-11-22T15:27:22.917Z,94.10
2018-11-22T15:30:04.746Z,94.40
2018-11-22T15:32:46.343Z,94.80
2018-11-22T15:35:29.352Z,95.00
2018-11-22T15:38:11.528Z,95.30
2018-11-22T15:40:52.498Z,95.50
2018-11-22T15:43:34.028Z,95.30
2018-11-22T15:46:15.803Z,95.60
2018-11-22T15:48:57.591Z,95.70
2018-11-22T15:51:39.055Z,95.70
2018-11-22T15:54:20.373Z,96.00
2018-11-22T15:57:02.340Z,96.40
2018-11-22T15:59:43.744Z,96.30
2018-11-22T16:02:25.517Z,96.50
2018-11-22T16:05:07.106Z,96.60
2018-11-22T16:07:48.487Z,96.80
2018-11-22T16:10:32.100Z,97.30
2018-11-22T16:13:14.755Z,97.60
2018-11-22T16:15:56.529Z,97.60
2018-11-22T16:18:38.256Z,97.60
2018-11-22T16:21:19.714Z,97.60
2018-11-22T16:24:02.318Z,97.80
2018-11-22T16:26:43.446Z,98.50
2018-11-22T16:29:25.025Z,98.70
2018-11-22T16:32:06.081Z,98.30
2018-11-22T16:34:47.753Z,98.50
2018-11-22T16:37:29.532Z,98.70
2018-11-22T16:40:12.085Z,98.90
2018-11-22T16:42:55.210Z,99.10
2018-11-22T16:45:37.142Z,99.20
2018-11-22T16:48:18.989Z,99.40
2018-11-22T16:51:00.657Z,99.50
2018-11-22T16:53:42.351Z,99.60
2018-11-22T16:56:23.771Z,99.60
2018-11-22T16:59:05.340Z,99.60
2018-11-22T17:01:47.016Z,99.70
2018-11-22T17:04:28.470Z,99.90
2018-11-22T17:07:10.193Z,99.90
2018-11-22T17:09:52.840Z,99.90
2018-11-22T17:12:34.525Z,99.90
2018-11-22T17:15:18.847Z,99.90
2018-11-22T17:18:01.074Z,99.90
2018-11-22T17:20:42.774Z,99.90
2018-11-22T17:23:24.537Z,99.90
2018-11-22T17:26:06.380Z,99.90
2018-11-22T17:28:47.439Z,99.90
2018-11-22T17:31:29.195Z,99.90
2018-11-22T17:34:10.704Z,99.90
2018-11-22T17:36:52.294Z,99.90
2018-11-22T17:39:33.355Z,99.90
2018-11-22T17:42:15.273Z,99.90
2018-11-22T17:44:56.947Z,99.90
2018-11-22T17:47:38.767Z,99.90
2018-11-22T17:50:19.812Z,99.90
2018-11-22T17:53:01.809Z,99.90
2018-11-22T17:55:43.026Z,99.90
2018-11-22T17:58:24.807Z,99.90
2018-11-22T18:01:06.482Z,99.90
2018-11-22T18:03:47.975Z,99.90
2018-11-22T18:06:29.413Z,99.90
2018-11-22T18:09:10.643Z,99.90
2018-11-22T18:11:52.171Z,99.90
2018-11-22T18:14:33.619Z,99.90
2018-11-22T18:17:14.708Z,99.90
2018-11-22T18:19:56.569Z,99.90
2018-11-22T18:22:38.293Z,99.90
2018-11-22T18:25:21.202Z,99.90
2018-11-22T18:28:02.819Z,99.90
2018-11-22T18:30:44.254Z,99.90
2018-11-22T18:33:27.180Z,99.90
2018-11-22T18:36:08.685Z,99.90
2018-11-22T18:38:51.028Z,99.90
2018-11-22T18:41:32.248Z,99.90
2018-11-22T18:44:14.350Z,99.90
2018-11-22T18:46:55.784Z,99.90
2018-11-22T18:49:37.348Z,99.90
2018-11-22T18:52:18.541Z,99.90
2018-11-22T18:54:59.986Z,99.90
2018-11-22T18:57:41.369Z,99.80
2018-11-22T19:00:24.290Z,99.60
2018-11-22T19:03:06.488Z,99.20
2018-11-22T19:05:47.495Z,99.40
2018-11-22T19:08:28.969Z,99.30
2018-11-22T19:11:12.308Z,99.60
2018-11-22T19:13:53.463Z,99.30
2018-11-22T19:16:35.050Z,99.10
2018-11-22T19:19:16.641Z,99.40
2018-11-22T19:21:58.153Z,99.10
2018-11-22T19:24:40.128Z,99.00
2018-11-22T19:27:21.529Z,99.00
2018-11-22T19:30:03.808Z,99.00
2018-11-22T19:32:45.444Z,99.00
2018-11-22T19:35:27.736Z,99.00
2018-11-22T19:38:09.092Z,99.00
2018-11-22T19:40:51.294Z,99.00
2018-11-22T19:43:32.405Z,98.90
2018-11-22T19:46:14.779Z,98.70
2018-11-22T19:48:56.579Z,98.40
2018-11-22T19:51:38.359Z,98.30
2018-11-22T19:54:19.175Z,98.10
2018-11-22T19:57:01.033Z,98.10
2018-11-22T19:59:42.444Z,98.10
2018-11-22T20:02:24.311Z,98.10
2018-11-22T20:05:05.842Z,98.10
2018-11-22T20:07:48.161Z,98.00
2018-11-22T20:10:31.163Z,98.00
2018-11-22T20:13:12.424Z,98.00
2018-11-22T20:15:54.405Z,98.00
2018-11-22T20:18:36.099Z,97.90
2018-11-22T20:21:18.506Z,97.80
2018-11-22T20:23:59.718Z,97.70
2018-11-22T20:26:41.479Z,97.70
2018-11-22T20:29:22.860Z,97.70
2018-11-22T20:32:05.473Z,97.70
2018-11-22T20:34:47.592Z,97.90
2018-11-22T20:37:29.489Z,97.70
2018-11-22T20:40:11.595Z,97.70
2018-11-22T20:42:52.577Z,97.70
2018-11-22T20:45:40.673Z,97.50
2018-11-22T20:48:16.995Z,97.70
2018-11-22T20:50:58.680Z,97.80
2018-11-22T20:53:40.334Z,97.80
2018-11-22T20:56:21.848Z,97.80
2018-11-22T20:59:03.512Z,97.90
2018-11-22T21:01:48.662Z,97.80
2018-11-22T21:04:27.206Z,98.00
2018-11-22T21:07:08.994Z,98.10
2018-11-22T21:09:50.503Z,98.10
2018-11-22T21:12:32.275Z,98.20
2018-11-22T21:15:15.427Z,98.20
2018-11-22T21:17:58.729Z,98.20
2018-11-22T21:20:41.674Z,98.10
2018-11-22T21:23:23.581Z,98.10
2018-11-22T21:26:05.455Z,98.10
2018-11-22T21:28:46.811Z,98.10
2018-11-22T21:31:28.719Z,98.10
2018-11-22T21:34:10.411Z,98.10
2018-11-22T21:36:52.257Z,98.20
2018-11-22T21:39:33.588Z,98.30
2018-11-22T21:42:15.476Z,98.30
2018-11-22T21:44:56.868Z,98.40
2018-11-22T21:47:38.489Z,98.50
2018-11-22T21:50:21.976Z,98.60
2018-11-22T21:53:04.883Z,98.80
2018-11-22T21:55:47.053Z,98.90
2018-11-22T21:58:28.342Z,99.00
2018-11-22T22:01:09.712Z,99.30
2018-11-22T22:03:51.606Z,99.00
2018-11-22T22:06:32.688Z,99.10
2018-11-22T22:09:14.447Z,99.10
2018-11-22T22:11:56.450Z,99.00
2018-11-22T22:14:37.625Z,98.90
2018-11-22T22:17:19.239Z,99.00
2018-11-22T22:20:01.029Z,98.90
2018-11-22T22:22:43.130Z,98.90
2018-11-22T22:25:24.939Z,98.90
2018-11-22T22:28:05.788Z,98.80
2018-11-22T22:30:47.052Z,98.80
2018-11-22T22:33:28.761Z,98.80
2018-11-22T22:36:10.556Z,98.70
2018-11-22T22:38:52.660Z,98.70
2018-11-22T22:41:33.918Z,98.50
2018-11-22T22:44:15.609Z,98.40
2018-11-22T22:46:56.992Z,98.80
2018-11-22T22:49:38.580Z,98.30
2018-11-22T22:52:20.293Z,98.20
2018-11-22T22:55:01.862Z,98.20
2018-11-22T22:57:44.091Z,98.20
2018-11-22T23:00:30.362Z,98.10
2018-11-22T23:03:12.207Z,98.10
2018-11-22T23:05:53.867Z,98.10
2018-11-22T23:08:35.660Z,98.30
2018-11-22T23:11:17.367Z,98.00
2018-11-22T23:13:59.641Z,98.00
2018-11-22T23:16:40.938Z,97.90
2018-11-22T23:19:22.847Z,97.90
2018-11-22T23:22:04.635Z,97.90
2018-11-22T23:24:46.304Z,97.80
2018-11-22T23:27:28.523Z,97.80
2018-11-22T23:30:09.483Z,97.70
2018-11-22T23:32:53.457Z,97.60
2018-11-22T23:35:35.219Z,97.50
2018-11-22T23:38:16.802Z,97.50
2018-11-22T23:40:59.033Z,97.50
2018-11-22T23:43:40.289Z,97.50
2018-11-22T23:46:21.086Z,97.50
2018-11-22T23:49:01.835Z,97.50
2018-11-22T23:51:42.903Z,97.50
2018-11-22T23:54:25.310Z,97.60
2018-11-22T23:57:06.415Z,97.70
2018-11-22T23:59:48.046Z,97.90
